KDET/DET METAR and TAF weather

Enter ICAO airport designator
Station Type Date Time Source
KDET METAR 2019/12/07 09:53 UTC NOAA

KDET 070953Z 00000KT 10SM CLR M04/M09 A3038 RMK AO2 SLP295 T10391094


Station Type Date Time Source
KDET Decoded METAR 2019/12/07 09:53 UTC NOAA

DETROIT CITY AIRPORT, MI, United States (KDET) 42-25N 083-01W 190M
Dec 07, 2019 - 04:53 AM EST / 2019.12.07 0953 UTC
Wind: Calm:0
Visibility: 10 mile(s):0
Sky conditions: clear
Temperature: 25.0 F (-3.9 C)
Dew Point: 15.1 F (-9.4 C)
Relative Humidity: 65%
Pressure (altimeter): 30.38 in. Hg (1028 hPa)
ob: KDET 070953Z 00000KT 10SM CLR M04/M09 A3038 RMK AO2 SLP295 T10391094
cycle: 10

Station Type Date Time Source
KDET TAF 2019/12/07 06:42 UTC NOAA

TAF KDET 070540Z 0706/0806 33005KT P6SM BKN250
FM070900 VRB03KT P6SM OVC150
FM071500 22005KT P6SM OVC100
FM072100 33010KT P6SM OVC150
FM080300 19010KT P6SM BKN200

Example: see airport list